Acme, WY

9:31 PM MDT on September 16, 2014 (GMT -0600)
KWYSHERI2 | Change Station
CLOSE
Current Station
Personal Weather Station
Location: Sheridan, WY
Elevation: 3828 ft
Nearby Weather Stations

Elev 3828 ft 44.81 °N, 106.98 °W | Updated 8 minutes ago

Mostly Cloudy
Mostly Cloudy
62.0 °F
Feels Like 62.0 °F
N
0.0
Wind Variable Wind from ENE
Gusts 0.0 mph

Today
High -- | Low -- °F
--% Chance of Precip.
Yesterday
High -- | Low -- °F
Precip. -- in
6:48 AM 7:17 PM
Last Quarter, 40% visible
Pressure 29.95 in
Visibility 10.0 miles
Clouds Clear
Dew Point 46 °F
Humidity 56%
Rainfall 0.00 in
Snow Depth 0 in , 0 in , 0 in
UV 0 out of 12
Pollen 5.90 out of 12
Air Quality Not available.
Flu Activity Not available.
METAR KSHR 170253Z AUTO 00000KT 10SM CLR 14/08 A3000 RMK AO2 SLP140 T01440078 53003

More Conditions Fewer Conditions

Pressure 29.95 in
Visibility 10.0 miles
Clouds Clear
Dew Point 46 °F
Humidity 56%
Rainfall 0.00 in
Snow Depth 0 in , 0 in , 0 in
UV 0 out of 12
Pollen 5.90 out of 12
Air Quality Not available.
Flu Activity Not available.
METAR KSHR 170253Z AUTO 00000KT 10SM CLR 14/08 A3000 RMK AO2 SLP140 T01440078 53003

More Conditions Fewer Conditions

10-Day Weather Forecast

Almanac

Astronomy

Sep. 16, 2014 Rise Set
Actual Time 6:48 AM MDT 7:17 PM MDT
Civil Twilight 6:19 AM MDT 7:46 PM MDT
Nautical Twilight 5:44 AM MDT 8:21 PM MDT
Astronomical Twilight 5:08 AM MDT 8:57 PM MDT
Moon No Moon Rise 2:54 PM MDT (9/16)
Length of Visible Light 13h 27m
Length of Day
12h 28m
Tomorrow will be 3m 6s shorter.
Last Quarter, 40% of the Moon is Illuminated
Today
Last Quarter
Sep 24
New
Oct 1
First Quarter
Oct 8
Full
Oct 15
Last Quarter

Today's Extremes

State Highs State Lows

Community

WunderPhotos

Upload Photos

1,753,954 photos uploaded!

Nearby

Snow Depth

Station Depth Elevation
Marquette 0 in 8760 ft
Hobbs Park 0 in 10100 ft
Cold Springs 0 in 9630 ft
Crow Creek 0 in 8330 ft
Salt River Summit 0 in 7600 ft

Earthquake Activity

City Distance Mag. Time & Date
No recent earthquake activity has been reported nearby.
Minimum magnitude displayed is 2.5.

Coastal Water Temperatures

Place Temperature
No Stations Reporting

Nearby Weather Stations